Time;durP1;ratioP1;P1;durP2;ratioP2;P2;SDS_P1;SDS_P2;PMS_P1;PMS_P2;Temp;Humidity;BMP_temperature;BMP_pressure;BME280_temperature;BME280_humidity;BME280_pressure;Samples;Min_cycle;Max_cycle;Signal;HPM_P1;HPM_P2
2023/04/09 00:02:03;;;;;;;36.47;26.40;;;9.10;99.90;;;;;;5034430;28;20202;-80
2023/04/09 00:04:30;;;;;;;35.60;26.47;;;9.10;99.90;;;;;;5034535;28;20623;-81
2023/04/09 00:06:57;;;;;;;35.40;26.43;;;9.10;99.90;;;;;;5034041;28;20286;-82
2023/04/09 00:09:24;;;;;;;36.00;26.23;;;9.00;99.90;;;;;;5033960;28;20202;-80
2023/04/09 00:11:51;;;;;;;34.60;24.83;;;9.00;99.90;;;;;;5033666;28;20221;-80
2023/04/09 00:14:19;;;;;;;38.67;26.87;;;9.00;99.90;;;;;;5032922;28;20225;-81
2023/04/09 00:16:46;;;;;;;36.53;28.27;;;8.90;99.90;;;;;;5033618;28;20226;-82
2023/04/09 00:19:13;;;;;;;36.33;27.63;;;8.90;99.90;;;;;;5033557;28;20278;-81
2023/04/09 00:21:40;;;;;;;37.13;27.90;;;8.90;99.90;;;;;;5032778;28;20195;-81
2023/04/09 00:24:07;;;;;;;37.77;28.60;;;8.80;99.90;;;;;;5033603;28;20257;-80
2023/04/09 00:26:34;;;;;;;40.63;29.83;;;8.80;99.90;;;;;;5033774;28;20232;-81
2023/04/09 00:29:01;;;;;;;36.00;27.13;;;8.80;99.90;;;;;;5033182;28;20203;-80
2023/04/09 00:31:30;;;;;;;36.73;28.77;;;8.80;99.90;;;;;;5033527;28;20217;-82
2023/04/09 00:33:56;;;;;;;38.00;27.37;;;8.80;99.90;;;;;;5033507;28;20202;-80
2023/04/09 00:36:23;;;;;;;37.07;27.50;;;8.80;99.90;;;;;;5032790;28;20281;-81
2023/04/09 00:38:52;;;;;;;36.97;28.00;;;8.80;99.90;;;;;;5034125;28;20333;-82
2023/04/09 00:41:19;;;;;;;38.83;29.83;;;8.80;99.90;;;;;;5052580;28;20202;-81
2023/04/09 00:43:46;;;;;;;34.87;27.23;;;8.80;99.90;;;;;;5053345;28;20233;-81
2023/04/09 00:46:14;;;;;;;42.00;30.17;;;8.80;99.90;;;;;;5050689;28;20548;-81
2023/04/09 00:48:43;;;;;;;37.37;28.97;;;8.70;99.90;;;;;;5032576;28;20203;-81
2023/04/09 00:51:10;;;;;;;37.43;28.13;;;8.70;99.90;;;;;;5032957;28;20285;-80
2023/04/09 00:53:37;;;;;;;40.07;29.53;;;8.70;99.90;;;;;;5032451;28;20289;-81
2023/04/09 00:56:04;;;;;;;40.13;29.93;;;8.70;99.90;;;;;;5032286;28;20214;-80
2023/04/09 00:58:32;;;;;;;41.53;29.33;;;8.70;99.90;;;;;;5032733;28;20313;-79
2023/04/09 01:00:59;;;;;;;40.03;29.67;;;8.70;99.90;;;;;;5032901;28;20195;-81
2023/04/09 01:03:26;;;;;;;42.03;30.63;;;8.70;99.90;;;;;;5032271;28;20249;-80
2023/04/09 01:06:06;;;;;;;35.80;27.53;;;8.70;99.90;;;;;;5032824;28;20218;-81
2023/04/09 01:08:45;;;;;;;42.53;30.63;;;8.70;99.90;;;;;;5033264;28;20273;-81
2023/04/09 01:11:20;;;;;;;41.70;29.13;;;8.70;99.90;;;;;;5032313;28;20563;-80
2023/04/09 01:13:54;;;;;;;38.63;28.60;;;8.70;99.90;;;;;;5032697;28;20349;-81
2023/04/09 01:16:23;;;;;;;38.70;29.80;;;8.70;99.90;;;;;;5032660;28;20262;-81
2023/04/09 01:18:56;;;;;;;41.87;29.50;;;8.70;99.90;;;;;;5032709;28;20256;-80
2023/04/09 01:21:30;;;;;;;42.13;30.40;;;8.70;99.90;;;;;;5033043;28;20523;-79
2023/04/09 01:24:09;;;;;;;41.47;29.73;;;8.60;99.90;;;;;;5032372;28;20210;-80
2023/04/09 01:26:45;;;;;;;42.80;30.77;;;8.60;99.90;;;;;;5033276;28;20222;-81
2023/04/09 01:29:16;;;;;;;42.90;29.03;;;8.60;99.90;;;;;;5033215;28;20238;-81
2023/04/09 01:31:45;;;;;;;39.10;29.43;;;8.60;99.90;;;;;;5032884;28;20591;-81
2023/04/09 01:34:14;;;;;;;41.70;30.80;;;8.60;99.90;;;;;;5032901;28;20285;-80
2023/04/09 01:36:43;;;;;;;38.93;27.97;;;8.60;99.90;;;;;;5032348;28;20203;-81
2023/04/09 01:39:11;;;;;;;42.70;30.67;;;8.60;99.90;;;;;;5043673;28;20272;-82
2023/04/09 01:41:39;;;;;;;38.90;29.67;;;8.60;99.90;;;;;;5037942;28;20261;-80
2023/04/09 01:44:07;;;;;;;39.30;30.37;;;8.70;99.90;;;;;;5036440;28;20285;-81
2023/04/09 01:46:39;;;;;;;39.37;29.20;;;8.70;99.90;;;;;;5036329;28;20202;-81
2023/04/09 01:49:06;;;;;;;42.77;28.97;;;8.70;99.90;;;;;;5036514;28;20609;-81
2023/04/09 01:51:34;;;;;;;41.20;30.00;;;8.70;99.90;;;;;;5036756;28;20313;-80
2023/04/09 01:54:01;;;;;;;43.80;29.60;;;8.70;99.90;;;;;;5036328;28;20479;-79
2023/04/09 01:56:28;;;;;;;39.23;29.47;;;8.80;99.90;;;;;;5036193;28;20501;-81
2023/04/09 01:58:55;;;;;;;40.27;27.93;;;8.80;99.90;;;;;;5035542;28;20957;-80
2023/04/09 02:01:28;;;;;;;38.73;27.13;;;8.80;99.90;;;;;;5036813;28;20600;-83
2023/04/09 02:04:00;;;;;;;38.53;26.87;;;8.80;99.90;;;;;;5056386;28;20273;-83
2023/04/09 02:06:39;;;;;;;38.87;25.93;;;8.70;99.90;;;;;;5044602;28;20222;-82
2023/04/09 02:09:08;;;;;;;37.03;27.67;;;8.70;99.90;;;;;;5036392;28;20197;-82
2023/04/09 02:11:39;;;;;;;34.23;27.03;;;8.70;99.90;;;;;;5036126;28;20266;-82
2023/04/09 02:14:08;;;;;;;39.43;26.70;;;8.70;99.90;;;;;;5035530;28;20257;-81
2023/04/09 02:16:36;;;;;;;36.20;26.77;;;8.70;99.90;;;;;;5036221;28;20198;-82
2023/04/09 02:19:05;;;;;;;33.67;26.00;;;8.70;99.90;;;;;;5036071;28;20329;-83
2023/04/09 02:21:32;;;;;;;37.50;25.70;;;8.70;99.90;;;;;;5035430;28;20206;-82
2023/04/09 02:23:59;;;;;;;34.97;24.77;;;8.70;99.90;;;;;;5035862;28;20261;-81
2023/04/09 02:26:26;;;;;;;37.17;26.00;;;8.70;99.90;;;;;;5035970;28;20612;-80
2023/04/09 02:28:53;;;;;;;38.87;26.97;;;8.70;99.90;;;;;;5035462;28;20285;-81
2023/04/09 02:31:20;;;;;;;35.70;25.73;;;8.70;99.90;;;;;;5035856;28;20699;-81
2023/04/09 02:33:46;;;;;;;34.43;26.07;;;8.70;99.90;;;;;;5035497;28;20217;-79
2023/04/09 02:36:15;;;;;;;37.70;26.20;;;8.70;99.90;;;;;;5035705;28;20279;-81
2023/04/09 02:38:42;;;;;;;37.20;25.23;;;8.70;99.90;;;;;;5035476;28;20261;-81
2023/04/09 02:41:09;;;;;;;36.90;26.50;;;8.70;99.90;;;;;;5035072;28;20964;-80
2023/04/09 02:43:36;;;;;;;38.33;26.90;;;8.70;99.90;;;;;;5035076;28;20211;-80
2023/04/09 02:46:03;;;;;;;36.50;26.63;;;8.70;99.90;;;;;;5035412;28;20285;-80
2023/04/09 02:48:30;;;;;;;35.40;26.23;;;8.70;99.90;;;;;;5034308;28;20226;-81
2023/04/09 02:50:57;;;;;;;40.33;27.17;;;8.70;99.90;;;;;;5035003;28;20290;-82
2023/04/09 02:53:26;;;;;;;39.73;27.87;;;8.70;99.90;;;;;;5035687;28;20199;-81
2023/04/09 02:55:53;;;;;;;46.30;30.27;;;8.70;99.90;;;;;;5034802;28;20254;-81
2023/04/09 02:58:19;;;;;;;38.73;26.40;;;8.70;99.90;;;;;;5035357;28;20277;-81
2023/04/09 03:00:46;;;;;;;43.80;29.30;;;8.70;99.90;;;;;;5035171;28;20229;-81
2023/04/09 03:03:13;;;;;;;40.10;27.13;;;8.70;99.90;;;;;;5034559;28;20203;-79
2023/04/09 03:05:40;;;;;;;41.87;27.17;;;8.70;99.90;;;;;;5034907;28;20496;-81
2023/04/09 03:08:07;;;;;;;47.00;28.97;;;8.70;99.90;;;;;;5035257;28;20690;-81
2023/04/09 03:10:35;;;;;;;42.23;29.17;;;8.70;99.90;;;;;;5034652;28;20278;-80
2023/04/09 03:13:02;;;;;;;40.50;27.47;;;8.70;99.90;;;;;;5035312;28;20673;-81
2023/04/09 03:15:29;;;;;;;37.93;27.33;;;8.70;99.90;;;;;;5035292;28;20281;-81
2023/04/09 03:17:56;;;;;;;39.20;27.33;;;8.70;99.90;;;;;;5034497;28;20305;-80
2023/04/09 03:20:23;;;;;;;42.87;28.80;;;8.70;99.90;;;;;;5034960;28;20198;-80
2023/04/09 03:22:50;;;;;;;41.33;28.87;;;8.70;99.90;;;;;;5034368;28;20194;-80
2023/04/09 03:25:19;;;;;;;39.17;26.37;;;8.70;99.90;;;;;;5033942;28;20724;-80
2023/04/09 03:27:48;;;;;;;41.77;27.57;;;8.70;99.90;;;;;;5034162;28;20190;-82
2023/04/09 03:30:15;;;;;;;42.20;26.87;;;8.70;99.90;;;;;;5033563;28;20202;-82
2023/04/09 03:32:42;;;;;;;41.90;28.33;;;8.70;99.90;;;;;;5035548;28;20190;-82
2023/04/09 03:35:09;;;;;;;42.17;26.33;;;8.70;99.90;;;;;;5035215;28;20631;-82
2023/04/09 03:37:36;;;;;;;44.70;28.67;;;8.70;99.90;;;;;;5034537;28;20204;-83
2023/04/09 03:40:03;;;;;;;39.97;26.83;;;8.70;99.90;;;;;;5035091;28;20234;-80
2023/04/09 03:42:31;;;;;;;37.20;25.93;;;8.80;99.90;;;;;;5035064;28;20507;-82
2023/04/09 03:44:59;;;;;;;44.23;27.93;;;8.70;99.90;;;;;;5034950;28;20233;-83
2023/04/09 03:47:26;;;;;;;44.23;28.43;;;8.80;99.90;;;;;;5035233;28;20512;-82
2023/04/09 03:49:53;;;;;;;44.77;28.40;;;8.80;99.90;;;;;;5035717;28;20210;-82
2023/04/09 03:52:20;;;;;;;42.50;28.00;;;8.80;99.90;;;;;;5035498;28;20501;-83
2023/04/09 03:54:47;;;;;;;49.03;29.27;;;8.80;99.90;;;;;;5036003;28;20231;-83
2023/04/09 03:57:14;;;;;;;44.53;29.97;;;8.90;99.90;;;;;;5035166;28;20202;-83
2023/04/09 03:59:41;;;;;;;42.03;27.53;;;8.80;99.90;;;;;;5034568;28;20301;-83
2023/04/09 04:02:09;;;;;;;44.50;29.17;;;8.90;99.90;;;;;;5035579;28;20886;-82
2023/04/09 04:04:36;;;;;;;47.70;31.07;;;8.90;99.90;;;;;;5035532;28;20560;-82
2023/04/09 04:07:03;;;;;;;52.67;31.77;;;8.80;99.90;;;;;;5035212;28;20214;-82
2023/04/09 04:09:30;;;;;;;51.07;30.73;;;8.80;99.90;;;;;;5034557;28;20281;-83
2023/04/09 04:11:57;;;;;;;47.93;29.03;;;8.80;99.90;;;;;;5035487;28;20211;-82
2023/04/09 04:14:24;;;;;;;50.60;31.43;;;8.90;99.90;;;;;;5034617;28;20305;-83
2023/04/09 04:16:51;;;;;;;48.47;30.90;;;8.90;99.90;;;;;;5034834;28;20290;-81
2023/04/09 04:19:19;;;;;;;49.23;30.23;;;8.90;99.90;;;;;;5034509;28;20254;-82
2023/04/09 04:21:46;;;;;;;56.20;32.23;;;8.80;99.90;;;;;;5033874;28;20278;-80
2023/04/09 04:24:13;;;;;;;53.07;31.93;;;8.80;99.90;;;;;;5033465;28;20297;-79
2023/04/09 04:26:40;;;;;;;51.77;32.23;;;8.90;99.90;;;;;;5032867;28;20193;-80
2023/04/09 04:29:07;;;;;;;52.10;32.07;;;8.90;99.90;;;;;;5033512;28;20283;-81
2023/04/09 04:31:34;;;;;;;52.00;31.70;;;8.90;99.90;;;;;;5052184;28;20237;-80
2023/04/09 04:34:01;;;;;;;52.00;31.50;;;8.90;99.90;;;;;;5052574;28;20252;-80
2023/04/09 04:36:29;;;;;;;50.23;31.80;;;8.90;99.90;;;;;;5052497;28;20227;-80
2023/04/09 04:38:56;;;;;;;52.43;31.67;;;8.90;99.90;;;;;;5044572;28;20329;-81
2023/04/09 04:41:23;;;;;;;51.37;32.30;;;8.90;99.90;;;;;;5033114;28;20290;-80
2023/04/09 04:43:50;;;;;;;53.40;32.63;;;8.90;99.90;;;;;;5033644;28;20264;-81
2023/04/09 04:46:19;;;;;;;51.53;30.37;;;8.90;99.90;;;;;;5033375;28;20653;-82
2023/04/09 04:48:46;;;;;;;52.17;31.60;;;9.00;99.90;;;;;;5032442;28;20511;-80
2023/04/09 04:51:13;;;;;;;50.07;30.40;;;9.00;99.90;;;;;;5053885;28;20221;-82
2023/04/09 04:53:41;;;;;;;51.27;30.40;;;8.90;99.90;;;;;;5053510;28;20244;-82
2023/04/09 04:56:13;;;;;;;47.50;30.07;;;8.90;99.90;;;;;;5053531;28;20198;-83
2023/04/09 04:58:40;;;;;;;51.13;31.37;;;9.00;99.90;;;;;;5035947;28;20228;-81
2023/04/09 05:01:07;;;;;;;50.80;30.37;;;9.00;99.90;;;;;;5033680;28;20233;-82
2023/04/09 05:03:33;;;;;;;47.07;29.50;;;9.00;99.90;;;;;;5033397;28;20208;-82
2023/04/09 05:06:00;;;;;;;46.83;29.23;;;9.00;99.90;;;;;;5034153;28;20199;-81
2023/04/09 05:08:27;;;;;;;49.27;28.33;;;9.00;99.90;;;;;;5033697;28;20199;-80
2023/04/09 05:10:55;;;;;;;48.57;30.10;;;8.90;99.90;;;;;;5033622;28;20501;-81
2023/04/09 05:13:23;;;;;;;49.20;30.27;;;8.90;99.90;;;;;;5032469;28;20577;-82
2023/04/09 05:15:50;;;;;;;51.73;31.27;;;8.90;99.90;;;;;;5033099;28;20277;-82
2023/04/09 05:18:17;;;;;;;47.20;28.23;;;8.90;99.90;;;;;;5041269;28;20233;-82
2023/04/09 05:20:44;;;;;;;44.97;27.33;;;8.90;99.90;;;;;;5053469;28;20290;-82
2023/04/09 05:23:11;;;;;;;43.87;28.17;;;9.00;99.90;;;;;;5053128;28;20281;-83
2023/04/09 05:25:38;;;;;;;47.30;29.50;;;9.00;99.90;;;;;;5052648;28;20308;-83
2023/04/09 05:28:06;;;;;;;45.10;28.80;;;9.00;99.90;;;;;;5037361;28;20206;-83
2023/04/09 05:30:33;;;;;;;45.30;27.87;;;9.00;99.90;;;;;;5031925;28;20210;-82
2023/04/09 05:33:00;;;;;;;46.47;28.93;;;9.00;99.90;;;;;;5032449;28;20225;-82
2023/04/09 05:35:27;;;;;;;48.77;30.97;;;9.00;99.90;;;;;;5032206;28;20198;-83
2023/04/09 05:37:54;;;;;;;47.77;30.03;;;9.00;99.90;;;;;;5032671;28;20199;-83
2023/04/09 05:40:21;;;;;;;45.27;28.27;;;9.00;99.90;;;;;;5032875;28;20337;-82
2023/04/09 05:42:48;;;;;;;50.03;30.17;;;9.00;99.90;;;;;;5033601;28;20415;-83
2023/04/09 05:45:17;;;;;;;46.03;28.73;;;9.00;99.90;;;;;;5033584;28;20210;-82
2023/04/09 05:47:43;;;;;;;40.93;26.97;;;9.00;99.90;;;;;;5033756;28;20836;-84
2023/04/09 05:50:11;;;;;;;44.83;27.83;;;9.00;99.90;;;;;;5033442;28;20670;-83
2023/04/09 05:52:38;;;;;;;38.67;25.77;;;9.00;99.90;;;;;;5033980;28;20203;-83
2023/04/09 05:55:06;;;;;;;41.20;26.37;;;9.00;99.90;;;;;;5033979;28;20595;-81
2023/04/09 05:57:33;;;;;;;45.10;28.83;;;9.10;99.90;;;;;;5033426;28;20588;-81
2023/04/09 06:00:00;;;;;;;41.70;27.60;;;9.10;99.90;;;;;;5033138;28;20230;-81
2023/04/09 06:02:29;;;;;;;41.30;27.73;;;9.10;99.90;;;;;;5040967;28;20230;-83
2023/04/09 06:04:56;;;;;;;41.60;28.23;;;9.10;99.90;;;;;;5053074;28;20224;-83
2023/04/09 06:07:23;;;;;;;42.63;28.13;;;9.10;99.90;;;;;;5048541;28;20296;-82
2023/04/09 06:09:49;;;;;;;42.03;25.93;;;9.10;99.90;;;;;;5032938;28;20615;-81
2023/04/09 06:12:16;;;;;;;45.20;27.43;;;9.10;99.90;;;;;;5032635;28;20556;-85
2023/04/09 06:14:43;;;;;;;42.20;27.67;;;9.10;99.90;;;;;;5032420;28;20233;-82
2023/04/09 06:17:10;;;;;;;40.77;27.53;;;9.20;99.90;;;;;;5032804;28;20199;-81
2023/04/09 06:19:38;;;;;;;47.07;28.50;;;9.20;99.90;;;;;;5031357;28;20584;-81
2023/04/09 06:22:06;;;;;;;44.30;29.20;;;9.20;99.90;;;;;;5051139;28;20216;-83
2023/04/09 06:24:33;;;;;;;43.33;29.50;;;9.20;99.90;;;;;;5068563;28;20197;-82
2023/04/09 06:27:00;;;;;;;42.73;27.27;;;9.20;99.90;;;;;;5075796;28;20546;-80
2023/04/09 06:29:27;;;;;;;41.07;28.13;;;9.20;99.90;;;;;;5072514;28;20200;-81
2023/04/09 06:31:54;;;;;;;40.00;27.73;;;9.30;99.90;;;;;;5072146;28;20196;-81
2023/04/09 06:34:21;;;;;;;41.27;27.43;;;9.30;99.90;;;;;;5072198;28;20280;-83
2023/04/09 06:36:49;;;;;;;41.97;27.13;;;9.30;99.90;;;;;;5077044;28;20227;-86
2023/04/09 06:39:16;;;;;;;43.47;28.57;;;9.30;99.90;;;;;;5076888;28;20328;-86
2023/04/09 06:41:43;;;;;;;46.23;30.10;;;9.30;99.90;;;;;;5067225;28;20293;-85
2023/04/09 06:44:10;;;;;;;42.27;28.30;;;9.30;99.90;;;;;;5056982;28;20560;-83
2023/04/09 06:46:37;;;;;;;40.07;27.53;;;9.30;99.90;;;;;;5056967;28;20606;-86
2023/04/09 06:49:04;;;;;;;43.13;29.13;;;9.40;99.90;;;;;;5074695;28;20644;-84
2023/04/09 06:51:32;;;;;;;37.00;25.57;;;9.40;99.90;;;;;;5059641;28;20259;-83
2023/04/09 07:08:23;;;;;;;39.67;26.47;;;9.40;99.90;;;;;;4782671;29;20287;-86
2023/04/09 07:10:50;;;;;;;40.17;26.87;;;9.40;99.90;;;;;;4906467;29;20205;-83
2023/04/09 07:13:17;;;;;;;39.37;26.50;;;9.50;99.90;;;;;;4979316;28;20323;-84
2023/04/09 07:15:44;;;;;;;40.20;26.23;;;9.50;99.90;;;;;;5012678;28;20204;-83
2023/04/09 07:18:11;;;;;;;41.27;27.93;;;9.50;99.90;;;;;;5013366;28;20286;-84
2023/04/09 07:20:39;;;;;;;40.67;28.00;;;9.50;99.90;;;;;;5001171;28;20647;-84
2023/04/09 07:23:06;;;;;;;40.53;27.77;;;9.60;99.90;;;;;;5014572;28;20207;-84
2023/04/09 07:25:35;;;;;;;42.37;26.93;;;9.60;99.90;;;;;;5007911;28;20248;-82
2023/04/09 07:28:02;;;;;;;38.83;26.97;;;9.60;99.90;;;;;;5014090;28;20214;-83
2023/04/09 07:30:29;;;;;;;38.60;26.60;;;9.60;99.90;;;;;;5012113;28;20286;-77
2023/04/09 07:32:56;;;;;;;39.57;26.67;;;9.60;99.90;;;;;;5007222;28;20521;-78
2023/04/09 07:35:23;;;;;;;39.87;26.10;;;9.60;99.90;;;;;;5011811;28;20207;-77
2023/04/09 07:37:52;;;;;;;38.93;27.40;;;9.60;99.90;;;;;;5005929;28;20195;-76
2023/04/09 07:40:19;;;;;;;40.87;27.43;;;9.70;99.90;;;;;;4992992;28;20324;-78
2023/04/09 07:42:48;;;;;;;36.67;25.43;;;9.70;99.90;;;;;;4991525;28;20261;-81
2023/04/09 07:45:15;;;;;;;41.03;27.33;;;9.70;99.90;;;;;;4990349;28;20622;-78
2023/04/09 07:47:42;;;;;;;39.20;26.80;;;9.70;99.90;;;;;;4973996;28;20197;-80
2023/04/09 07:50:10;;;;;;;43.17;28.37;;;9.70;99.90;;;;;;4992904;28;20196;-78
2023/04/09 07:52:37;;;;;;;44.47;28.97;;;9.70;99.90;;;;;;4990828;28;20286;-79
2023/04/09 07:55:05;;;;;;;44.73;29.80;;;9.70;99.90;;;;;;4972549;28;20209;-78
2023/04/09 07:57:32;;;;;;;44.90;29.50;;;9.70;99.90;;;;;;4972132;28;20283;-79
2023/04/09 08:00:02;;;;;;;43.23;27.33;;;9.70;99.90;;;;;;4972104;28;20304;-77
2023/04/09 08:02:29;;;;;;;39.73;27.43;;;9.70;99.90;;;;;;5032923;28;20208;-77
2023/04/09 08:04:56;;;;;;;38.47;27.87;;;9.70;99.90;;;;;;5033887;28;20215;-77
2023/04/09 08:07:23;;;;;;;43.73;28.30;;;9.80;99.90;;;;;;5034040;28;20199;-82
2023/04/09 08:09:50;;;;;;;37.97;25.83;;;9.80;99.90;;;;;;5034034;28;20201;-77
2023/04/09 08:12:17;;;;;;;43.53;28.63;;;9.80;99.90;;;;;;5033181;28;20217;-79
2023/04/09 08:14:44;;;;;;;41.20;27.97;;;9.80;99.90;;;;;;5033506;28;20244;-79
2023/04/09 08:17:12;;;;;;;39.90;27.70;;;9.90;99.90;;;;;;5033734;28;20642;-80
2023/04/09 08:19:40;;;;;;;34.97;22.97;;;9.90;99.90;;;;;;5033032;28;20215;-78
2023/04/09 08:22:07;;;;;;;35.53;25.10;;;9.90;99.90;;;;;;5033616;28;20286;-85
2023/04/09 08:24:34;;;;;;;35.30;25.43;;;9.90;99.90;;;;;;5033626;28;20285;-81
2023/04/09 08:27:01;;;;;;;42.87;27.70;;;9.90;99.90;;;;;;5034498;28;20209;-85
2023/04/09 08:29:30;;;;;;;39.73;25.67;;;9.90;99.90;;;;;;5034375;28;20203;-78
2023/04/09 08:31:57;;;;;;;39.00;26.83;;;9.90;99.90;;;;;;5034298;28;20194;-84
2023/04/09 08:34:26;;;;;;;38.57;27.13;;;9.90;99.90;;;;;;5034123;28;20198;-80
2023/04/09 08:36:53;;;;;;;40.00;27.23;;;10.00;99.90;;;;;;5033999;28;20520;-80
2023/04/09 08:39:20;;;;;;;38.63;26.87;;;10.00;99.90;;;;;;5044209;28;20321;-80
2023/04/09 08:41:47;;;;;;;39.97;27.47;;;10.00;99.90;;;;;;5050728;28;20274;-85
2023/04/09 08:44:15;;;;;;;39.87;26.50;;;10.00;99.90;;;;;;5033919;28;20218;-83
2023/04/09 08:46:43;;;;;;;39.47;27.53;;;10.00;99.90;;;;;;5033807;28;20230;-80
2023/04/09 08:49:11;;;;;;;37.47;26.43;;;10.00;99.90;;;;;;5033502;28;20285;-78
2023/04/09 08:51:45;;;;;;;38.53;25.53;;;10.00;99.90;;;;;;5041185;28;20217;-78
2023/04/09 08:54:18;;;;;;;37.63;25.73;;;10.00;99.90;;;;;;5050842;28;20190;-81
2023/04/09 08:56:44;;;;;;;40.10;27.53;;;10.00;99.90;;;;;;5042437;28;20218;-83
2023/04/09 08:59:15;;;;;;;43.67;28.50;;;10.00;99.90;;;;;;5053301;28;20304;-84
2023/04/09 09:01:42;;;;;;;37.33;25.83;;;10.00;99.90;;;;;;5055070;28;20212;-82
2023/04/09 09:04:23;;;;;;;41.07;27.60;;;10.00;99.90;;;;;;5051276;28;20186;-85
2023/04/09 09:06:52;;;;;;;39.40;27.03;;;10.00;99.90;;;;;;5048387;28;20252;-84
2023/04/09 09:09:19;;;;;;;41.33;27.33;;;10.00;99.90;;;;;;5052492;28;20662;-82
2023/04/09 09:11:47;;;;;;;36.90;24.80;;;10.10;99.90;;;;;;5048841;28;20201;-81
2023/04/09 09:14:15;;;;;;;40.90;28.43;;;10.10;99.90;;;;;;5032527;28;20266;-80
2023/04/09 09:16:45;;;;;;;39.47;26.33;;;10.10;99.90;;;;;;5032577;28;20257;-80
2023/04/09 09:19:34;;;;;;;39.60;27.20;;;10.20;99.90;;;;;;5032844;28;20201;-77
2023/04/09 09:22:04;;;;;;;36.57;26.60;;;10.20;99.90;;;;;;5031565;28;20511;-82
2023/04/09 09:24:32;;;;;;;33.97;24.57;;;10.20;99.90;;;;;;5032957;28;20186;-81
2023/04/09 09:27:00;;;;;;;36.87;25.83;;;10.20;99.90;;;;;;5032037;28;20209;-83
2023/04/09 09:29:28;;;;;;;40.07;27.97;;;10.30;99.90;;;;;;5032661;28;20245;-79
2023/04/09 09:31:56;;;;;;;37.67;26.53;;;10.30;99.90;;;;;;5032281;28;20202;-79
2023/04/09 09:34:24;;;;;;;40.13;26.43;;;10.20;99.90;;;;;;5032125;28;20637;-80
2023/04/09 09:36:51;;;;;;;42.03;27.13;;;10.20;99.90;;;;;;5031441;28;20680;-82
2023/04/09 09:39:20;;;;;;;37.03;25.53;;;10.20;99.90;;;;;;5042683;28;20320;-78
2023/04/09 09:41:47;;;;;;;39.60;25.67;;;10.30;99.90;;;;;;5051584;28;20541;-79
2023/04/09 09:44:31;;;;;;;37.33;25.27;;;10.30;99.90;;;;;;5051394;28;20205;-78
2023/04/09 09:46:59;;;;;;;37.17;26.13;;;10.30;99.90;;;;;;5052294;28;20208;-79
2023/04/09 09:49:26;;;;;;;36.77;25.30;;;10.40;99.90;;;;;;5053441;28;20613;-78
2023/04/09 09:51:56;;;;;;;35.77;26.27;;;10.40;99.90;;;;;;5069900;28;20643;-82
2023/04/09 09:54:28;;;;;;;37.57;25.10;;;10.40;99.90;;;;;;5072215;28;20280;-79
2023/04/09 09:56:58;;;;;;;33.83;25.30;;;10.50;99.90;;;;;;5072358;28;20217;-83
2023/04/09 09:59:33;;;;;;;34.43;24.17;;;10.50;99.90;;;;;;5075756;28;20219;-83
2023/04/09 10:02:04;;;;;;;35.23;24.53;;;10.50;99.90;;;;;;5076991;28;20845;-84
2023/04/09 10:04:34;;;;;;;33.07;24.50;;;10.50;99.90;;;;;;5073635;28;20206;-84
2023/04/09 10:07:11;;;;;;;32.30;24.10;;;10.50;99.90;;;;;;5076023;28;20209;-83
2023/04/09 10:09:59;;;;;;;35.13;23.60;;;10.50;99.90;;;;;;5075654;28;20221;-83
2023/04/09 10:12:27;;;;;;;34.50;24.20;;;10.60;99.90;;;;;;5070415;28;20221;-83
2023/04/09 10:14:55;;;;;;;32.07;23.87;;;10.60;99.90;;;;;;5075175;28;20212;-78
2023/04/09 10:17:22;;;;;;;34.73;25.00;;;10.70;99.90;;;;;;5074719;28;20453;-79
2023/04/09 10:19:56;;;;;;;35.47;25.40;;;10.80;99.90;;;;;;5071582;28;20278;-86
2023/04/09 10:22:28;;;;;;;36.07;25.17;;;10.80;99.90;;;;;;5073132;28;20247;-84
2023/04/09 10:24:56;;;;;;;30.20;21.90;;;10.90;99.90;;;;;;5076068;28;20570;-82
2023/04/09 10:27:30;;;;;;;33.30;24.87;;;10.90;99.90;;;;;;5076884;28;20201;-84
2023/04/09 10:29:58;;;;;;;33.87;23.43;;;11.00;99.90;;;;;;5076287;28;20249;-86
2023/04/09 10:32:27;;;;;;;38.13;24.73;;;11.00;99.90;;;;;;5075784;28;20254;-78
2023/04/09 10:34:58;;;;;;;32.27;24.23;;;11.00;99.90;;;;;;5056809;28;20225;-81
2023/04/09 10:37:26;;;;;;;34.13;25.27;;;11.10;99.90;;;;;;5055395;28;20190;-77
2023/04/09 10:39:55;;;;;;;36.37;25.57;;;11.10;99.90;;;;;;5054150;28;20586;-79
2023/04/09 10:42:26;;;;;;;33.87;23.40;;;11.10;99.90;;;;;;5072930;28;20590;-80
2023/04/09 10:45:09;;;;;;;33.63;23.03;;;11.10;99.90;;;;;;5074971;28;20239;-78
2023/04/09 10:47:37;;;;;;;36.47;26.00;;;11.10;99.90;;;;;;5055077;28;20225;-77
2023/04/09 10:50:19;;;;;;;37.00;25.73;;;11.10;99.90;;;;;;5055068;28;20194;-81
2023/04/09 10:53:21;;;;;;;32.90;24.87;;;11.20;99.90;;;;;;5054987;28;20233;-84
2023/04/09 10:55:49;;;;;;;35.63;25.20;;;11.30;99.90;;;;;;5055280;28;20204;-80
2023/04/09 10:58:18;;;;;;;37.53;26.47;;;11.40;99.90;;;;;;5055321;28;20210;-80
2023/04/09 11:00:47;;;;;;;38.63;26.60;;;11.50;99.90;;;;;;5054770;28;20559;-81
2023/04/09 11:03:20;;;;;;;36.27;25.63;;;11.70;99.90;;;;;;5055459;28;20202;-86
2023/04/09 11:05:51;;;;;;;36.70;26.03;;;11.70;99.90;;;;;;5055434;28;20201;-77
2023/04/09 11:08:18;;;;;;;38.43;27.43;;;11.80;99.90;;;;;;5054769;28;20226;-78
2023/04/09 11:10:46;;;;;;;39.27;27.97;;;12.00;99.90;;;;;;5053956;28;20276;-83
2023/04/09 11:13:14;;;;;;;39.07;27.17;;;12.20;99.90;;;;;;5054213;28;20236;-84
2023/04/09 11:15:43;;;;;;;41.23;27.43;;;12.40;99.90;;;;;;5054480;28;20225;-83
2023/04/09 11:18:14;;;;;;;38.00;27.97;;;12.60;99.90;;;;;;5055007;28;20198;-79
2023/04/09 11:20:42;;;;;;;37.53;27.00;;;12.80;99.90;;;;;;5071679;28;20206;-81
2023/04/09 11:23:10;;;;;;;39.77;29.03;;;13.10;99.90;;;;;;5066008;28;20202;-83
2023/04/09 11:25:37;;;;;;;39.40;27.93;;;13.20;99.90;;;;;;5054917;28;20578;-82
2023/04/09 11:28:05;;;;;;;38.83;27.73;;;13.40;99.90;;;;;;5054782;28;20240;-83
2023/04/09 11:30:33;;;;;;;39.23;28.10;;;13.60;99.90;;;;;;5054046;28;20213;-80
2023/04/09 11:33:02;;;;;;;40.47;29.37;;;13.60;99.90;;;;;;5054655;28;20202;-80
2023/04/09 11:35:29;;;;;;;39.57;29.40;;;13.80;99.90;;;;;;5053264;28;20221;-81
2023/04/09 11:37:56;;;;;;;39.27;29.43;;;13.90;99.90;;;;;;5054000;28;20209;-78
2023/04/09 11:40:24;;;;;;;38.23;28.63;;;13.80;99.90;;;;;;5054151;28;20308;-77
2023/04/09 11:42:53;;;;;;;39.13;29.47;;;13.90;99.90;;;;;;5053420;28;20234;-78
2023/04/09 11:45:22;;;;;;;37.73;26.87;;;14.00;99.90;;;;;;5054087;28;20198;-79
2023/04/09 11:47:49;;;;;;;39.67;28.87;;;14.10;99.90;;;;;;5054177;28;20300;-78
2023/04/09 11:50:19;;;;;;;35.30;27.43;;;14.30;99.90;;;;;;5053553;28;20337;-76
2023/04/09 11:52:46;;;;;;;37.13;27.40;;;14.50;99.90;;;;;;5053533;28;20202;-78
2023/04/09 11:55:24;;;;;;;35.83;27.93;;;14.80;99.90;;;;;;5053425;28;20257;-76
2023/04/09 11:57:53;;;;;;;35.17;27.10;;;14.90;99.90;;;;;;5052858;28;20201;-77
2023/04/09 12:00:20;;;;;;;37.92;29.35;;;15.00;99.90;;;;;;5053952;28;20289;-81
2023/04/09 12:02:49;;;;;;;37.80;28.95;;;15.10;99.90;;;;;;5053317;28;20212;-78
2023/04/09 12:05:23;;;;;;;33.38;27.15;;;15.30;99.90;;;;;;5053999;28;20240;-79
2023/04/09 12:07:50;;;;;;;33.30;25.75;;;15.40;99.90;;;;;;5053892;28;20193;-81
2023/04/09 12:10:17;;;;;;;35.33;27.17;;;15.30;99.90;;;;;;5053743;28;20202;-81
2023/04/09 12:12:46;;;;;;;30.38;24.02;;;15.50;99.90;;;;;;5061711;28;20235;-79
2023/04/09 12:15:20;;;;;;;34.58;26.45;;;15.60;99.90;;;;;;5073054;28;20198;-83
2023/04/09 12:17:51;;;;;;;34.53;27.88;;;15.50;99.90;;;;;;5073513;28;20192;-81
2023/04/09 12:20:34;;;;;;;31.35;25.33;;;15.50;99.90;;;;;;5057933;28;20705;-83
2023/04/09 12:23:03;;;;;;;30.30;24.33;;;15.60;99.90;;;;;;5054275;28;20614;-84
2023/04/09 12:25:30;;;;;;;35.08;27.60;;;15.70;99.90;;;;;;5054429;28;20285;-83
2023/04/09 12:27:58;;;;;;;31.50;24.98;;;15.70;99.90;;;;;;5053679;28;20781;-84
2023/04/09 12:30:25;;;;;;;33.63;26.15;;;15.70;99.90;;;;;;5061456;28;20493;-82
2023/04/09 12:32:53;;;;;;;36.10;27.70;;;15.60;99.90;;;;;;5073601;28;20235;-80
2023/04/09 12:35:20;;;;;;;30.88;24.60;;;15.60;99.90;;;;;;5073015;28;20205;-82
2023/04/09 12:37:48;;;;;;;33.17;26.27;;;15.70;99.90;;;;;;5073881;28;20284;-82
2023/04/09 12:40:16;;;;;;;32.15;26.40;;;15.80;99.90;;;;;;5073375;28;20268;-81
2023/04/09 12:42:44;;;;;;;28.63;24.63;;;15.90;99.90;;;;;;5069941;28;20206;-81
2023/04/09 12:45:13;;;;;;;32.65;26.20;;;15.90;99.90;;;;;;5053323;28;20292;-81
2023/04/09 12:47:40;;;;;;;31.70;24.58;;;15.90;99.90;;;;;;5053075;28;20208;-83
2023/04/09 12:50:09;;;;;;;31.70;25.90;;;16.00;99.90;;;;;;5053172;28;20245;-80
2023/04/09 12:52:36;;;;;;;28.52;23.27;;;15.90;99.90;;;;;;5053073;28;20202;-79
2023/04/09 12:55:06;;;;;;;27.83;21.17;;;15.90;99.90;;;;;;5052901;28;20210;-78